Terminal Aerodrome Forecast
Issued by NWS

Home | Current Version | Previous Version | Text Only | Print | Product List | Glossary On
Versions: 1 2 3 4 5 6 7 8 9 10 11 12 13 14 15 16
000
FTAK31 PAJN 260500
TAFASI
TAF
PASI 260532Z 2606/2706 32008KT P6SM FEW010 SCT120
     FM261200 33005KT P6SM OVC020
     FM262000 25006KT P6SM FEW020 OVC050
     FM270400 30007KT P6SM OVC040=

USA.gov is the U.S. government's official web portal to all federal, state and local government web resources and services.